sensor_id;sensor_type;location;lat;lon;timestamp;temperature;humidity
67358;HTU21D;54240;51.096;5.878;2023-06-10T00:00:49;22.53;-6.00
67358;HTU21D;54240;51.096;5.878;2023-06-10T00:03:16;22.50;-6.00
67358;HTU21D;54240;51.096;5.878;2023-06-10T00:05:43;22.46;-6.00
67358;HTU21D;54240;51.096;5.878;2023-06-10T00:08:09;22.39;-6.00
67358;HTU21D;54240;51.096;5.878;2023-06-10T00:10:37;22.34;-6.00
67358;HTU21D;54240;51.096;5.878;2023-06-10T00:13:06;22.28;-6.00
67358;HTU21D;54240;51.096;5.878;2023-06-10T00:15:35;22.21;-6.00
67358;HTU21D;54240;51.096;5.878;2023-06-10T00:18:02;22.16;-6.00
67358;HTU21D;54240;51.096;5.878;2023-06-10T00:20:30;22.09;-6.00
67358;HTU21D;54240;51.096;5.878;2023-06-10T00:22:58;22.03;-6.00
67358;HTU21D;54240;51.096;5.878;2023-06-10T00:25:27;21.97;-6.00
67358;HTU21D;54240;51.096;5.878;2023-06-10T00:27:55;22.06;-6.00
67358;HTU21D;54240;51.096;5.878;2023-06-10T00:30:21;22.13;-6.00
67358;HTU21D;54240;51.096;5.878;2023-06-10T00:32:47;22.08;-6.00
67358;HTU21D;54240;51.096;5.878;2023-06-10T00:35:13;21.91;-6.00
67358;HTU21D;54240;51.096;5.878;2023-06-10T00:37:39;21.91;-6.00
67358;HTU21D;54240;51.096;5.878;2023-06-10T00:40:06;21.85;-6.00
67358;HTU21D;54240;51.096;5.878;2023-06-10T00:42:37;21.83;-6.00
67358;HTU21D;54240;51.096;5.878;2023-06-10T00:45:04;21.78;-6.00
67358;HTU21D;54240;51.096;5.878;2023-06-10T00:47:31;21.72;-6.00
67358;HTU21D;54240;51.096;5.878;2023-06-10T00:49:57;21.68;-6.00
67358;HTU21D;54240;51.096;5.878;2023-06-10T00:52:28;21.58;-6.00
67358;HTU21D;54240;51.096;5.878;2023-06-10T00:54:55;21.52;-6.00
67358;HTU21D;54240;51.096;5.878;2023-06-10T00:57:21;21.49;-6.00
67358;HTU21D;54240;51.096;5.878;2023-06-10T00:59:48;21.43;-6.00
67358;HTU21D;54240;51.096;5.878;2023-06-10T01:02:15;21.39;-6.00
67358;HTU21D;54240;51.096;5.878;2023-06-10T01:04:41;21.35;-6.00
67358;HTU21D;54240;51.096;5.878;2023-06-10T01:07:28;21.30;-6.00
67358;HTU21D;54240;51.096;5.878;2023-06-10T01:10:05;21.23;-6.00
67358;HTU21D;54240;51.096;5.878;2023-06-10T01:15:18;21.14;-6.00
67358;HTU21D;54240;51.096;5.878;2023-06-10T01:18:05;21.11;-6.00
67358;HTU21D;54240;51.096;5.878;2023-06-10T01:20:36;21.08;-6.00
67358;HTU21D;54240;51.096;5.878;2023-06-10T01:23:06;21.05;-6.00
67358;HTU21D;54240;51.096;5.878;2023-06-10T01:25:35;21.03;-6.00
67358;HTU21D;54240;51.096;5.878;2023-06-10T01:28:14;21.02;-6.00
67358;HTU21D;54240;51.096;5.878;2023-06-10T01:33:25;20.93;-6.00
67358;HTU21D;54240;51.096;5.878;2023-06-10T01:35:58;20.90;-6.00
67358;HTU21D;54240;51.096;5.878;2023-06-10T01:38:27;20.87;-6.00
67358;HTU21D;54240;51.096;5.878;2023-06-10T01:40:55;20.83;-6.00
67358;HTU21D;54240;51.096;5.878;2023-06-10T01:43:23;20.79;-6.00
67358;HTU21D;54240;51.096;5.878;2023-06-10T01:45:49;20.77;-6.00
67358;HTU21D;54240;51.096;5.878;2023-06-10T01:48:15;20.73;-6.00
67358;HTU21D;54240;51.096;5.878;2023-06-10T01:50:41;20.69;-6.00
67358;HTU21D;54240;51.096;5.878;2023-06-10T01:53:09;20.66;-6.00
67358;HTU21D;54240;51.096;5.878;2023-06-10T01:55:35;20.61;-6.00
67358;HTU21D;54240;51.096;5.878;2023-06-10T01:58:02;20.56;-6.00
67358;HTU21D;54240;51.096;5.878;2023-06-10T02:00:28;20.49;-6.00
67358;HTU21D;54240;51.096;5.878;2023-06-10T02:02:54;20.44;-6.00
67358;HTU21D;54240;51.096;5.878;2023-06-10T02:05:21;20.41;-6.00
67358;HTU21D;54240;51.096;5.878;2023-06-10T02:07:48;20.33;-6.00
67358;HTU21D;54240;51.096;5.878;2023-06-10T02:10:14;20.29;-6.00
67358;HTU21D;54240;51.096;5.878;2023-06-10T02:12:40;20.25;-6.00
67358;HTU21D;54240;51.096;5.878;2023-06-10T02:15:06;20.21;-6.00
67358;HTU21D;54240;51.096;5.878;2023-06-10T02:17:32;20.20;-6.00
67358;HTU21D;54240;51.096;5.878;2023-06-10T02:19:59;20.18;-6.00
67358;HTU21D;54240;51.096;5.878;2023-06-10T02:22:25;20.16;-6.00
67358;HTU21D;54240;51.096;5.878;2023-06-10T02:24:51;20.13;-6.00
67358;HTU21D;54240;51.096;5.878;2023-06-10T02:27:18;20.09;-6.00
67358;HTU21D;54240;51.096;5.878;2023-06-10T02:29:44;20.03;-6.00
67358;HTU21D;54240;51.096;5.878;2023-06-10T02:32:11;20.00;-6.00
67358;HTU21D;54240;51.096;5.878;2023-06-10T02:34:37;19.97;-6.00
67358;HTU21D;54240;51.096;5.878;2023-06-10T02:37:04;19.94;-6.00
67358;HTU21D;54240;51.096;5.878;2023-06-10T02:39:30;19.94;-6.00
67358;HTU21D;54240;51.096;5.878;2023-06-10T02:41:56;19.89;-6.00
67358;HTU21D;54240;51.096;5.878;2023-06-10T02:44:22;19.85;-6.00
67358;HTU21D;54240;51.096;5.878;2023-06-10T02:46:49;19.84;-6.00
67358;HTU21D;54240;51.096;5.878;2023-06-10T02:49:15;19.79;-6.00
67358;HTU21D;54240;51.096;5.878;2023-06-10T02:51:42;19.77;-6.00
67358;HTU21D;54240;51.096;5.878;2023-06-10T02:54:09;19.74;-6.00
67358;HTU21D;54240;51.096;5.878;2023-06-10T02:56:35;19.72;-6.00
67358;HTU21D;54240;51.096;5.878;2023-06-10T02:59:04;19.71;-6.00
67358;HTU21D;54240;51.096;5.878;2023-06-10T03:01:33;19.69;-6.00
67358;HTU21D;54240;51.096;5.878;2023-06-10T03:04:06;19.70;-6.00
67358;HTU21D;54240;51.096;5.878;2023-06-10T03:06:34;19.68;-6.00
67358;HTU21D;54240;51.096;5.878;2023-06-10T03:09:21;19.67;-6.00
67358;HTU21D;54240;51.096;5.878;2023-06-10T03:11:50;19.66;-6.00
67358;HTU21D;54240;51.096;5.878;2023-06-10T03:14:16;19.62;-6.00
67358;HTU21D;54240;51.096;5.878;2023-06-10T03:16:43;19.60;-6.00
67358;HTU21D;54240;51.096;5.878;2023-06-10T03:19:11;19.59;-6.00
67358;HTU21D;54240;51.096;5.878;2023-06-10T03:21:44;19.55;-6.00
67358;HTU21D;54240;51.096;5.878;2023-06-10T03:24:13;19.53;-6.00
67358;HTU21D;54240;51.096;5.878;2023-06-10T03:26:39;19.50;-6.00
67358;HTU21D;54240;51.096;5.878;2023-06-10T03:29:07;19.47;-6.00
67358;HTU21D;54240;51.096;5.878;2023-06-10T03:31:33;19.46;-6.00
67358;HTU21D;54240;51.096;5.878;2023-06-10T03:34:01;19.44;-6.00
67358;HTU21D;54240;51.096;5.878;2023-06-10T03:36:27;19.41;-6.00
67358;HTU21D;54240;51.096;5.878;2023-06-10T03:38:56;19.38;-6.00
67358;HTU21D;54240;51.096;5.878;2023-06-10T03:41:22;19.36;-6.00
67358;HTU21D;54240;51.096;5.878;2023-06-10T03:43:50;19.35;-6.00
67358;HTU21D;54240;51.096;5.878;2023-06-10T03:46:16;19.37;-6.00
67358;HTU21D;54240;51.096;5.878;2023-06-10T03:48:43;19.36;-6.00
67358;HTU21D;54240;51.096;5.878;2023-06-10T03:51:09;19.37;-6.00
67358;HTU21D;54240;51.096;5.878;2023-06-10T03:53:35;19.36;-6.00
67358;HTU21D;54240;51.096;5.878;2023-06-10T03:56:01;19.37;-6.00
67358;HTU21D;54240;51.096;5.878;2023-06-10T03:58:29;19.39;-6.00
67358;HTU21D;54240;51.096;5.878;2023-06-10T04:00:55;19.41;-6.00
67358;HTU21D;54240;51.096;5.878;2023-06-10T04:03:30;19.41;-6.00
67358;HTU21D;54240;51.096;5.878;2023-06-10T04:05:57;19.41;-6.00
67358;HTU21D;54240;51.096;5.878;2023-06-10T04:08:25;19.41;-6.00
67358;HTU21D;54240;51.096;5.878;2023-06-10T04:10:51;19.42;-6.00
67358;HTU21D;54240;51.096;5.878;2023-06-10T04:13:17;19.42;-6.00
67358;HTU21D;54240;51.096;5.878;2023-06-10T04:15:53;19.43;-6.00
67358;HTU21D;54240;51.096;5.878;2023-06-10T04:18:21;19.44;-6.00
67358;HTU21D;54240;51.096;5.878;2023-06-10T04:20:52;19.46;-6.00
67358;HTU21D;54240;51.096;5.878;2023-06-10T04:23:18;19.47;-6.00
67358;HTU21D;54240;51.096;5.878;2023-06-10T04:25:48;19.51;-6.00
67358;HTU21D;54240;51.096;5.878;2023-06-10T04:28:14;19.56;-6.00
67358;HTU21D;54240;51.096;5.878;2023-06-10T04:30:41;19.61;-6.00
67358;HTU21D;54240;51.096;5.878;2023-06-10T04:33:07;19.62;-6.00
67358;HTU21D;54240;51.096;5.878;2023-06-10T04:35:35;19.65;-6.00
67358;HTU21D;54240;51.096;5.878;2023-06-10T04:38:04;19.70;-6.00
67358;HTU21D;54240;51.096;5.878;2023-06-10T04:40:32;19.70;-6.00
67358;HTU21D;54240;51.096;5.878;2023-06-10T04:42:59;19.74;-6.00
67358;HTU21D;54240;51.096;5.878;2023-06-10T04:45:25;19.75;-6.00
67358;HTU21D;54240;51.096;5.878;2023-06-10T04:47:51;19.77;-6.00
67358;HTU21D;54240;51.096;5.878;2023-06-10T04:50:17;19.79;-6.00
67358;HTU21D;54240;51.096;5.878;2023-06-10T04:52:43;19.81;-6.00
67358;HTU21D;54240;51.096;5.878;2023-06-10T04:55:10;19.86;-6.00
67358;HTU21D;54240;51.096;5.878;2023-06-10T04:57:36;19.95;-6.00
67358;HTU21D;54240;51.096;5.878;2023-06-10T05:00:03;20.03;-6.00
67358;HTU21D;54240;51.096;5.878;2023-06-10T05:02:31;20.10;-6.00
67358;HTU21D;54240;51.096;5.878;2023-06-10T05:04:57;20.16;-6.00
67358;HTU21D;54240;51.096;5.878;2023-06-10T05:07:24;20.22;-6.00
67358;HTU21D;54240;51.096;5.878;2023-06-10T05:09:49;20.24;-6.00
67358;HTU21D;54240;51.096;5.878;2023-06-10T05:12:15;20.33;-6.00
67358;HTU21D;54240;51.096;5.878;2023-06-10T05:14:41;20.40;-6.00
67358;HTU21D;54240;51.096;5.878;2023-06-10T05:17:07;20.46;-6.00
67358;HTU21D;54240;51.096;5.878;2023-06-10T05:19:33;20.54;-6.00
67358;HTU21D;54240;51.096;5.878;2023-06-10T05:22:01;20.59;-6.00
67358;HTU21D;54240;51.096;5.878;2023-06-10T05:24:28;20.68;-6.00
67358;HTU21D;54240;51.096;5.878;2023-06-10T05:26:54;20.77;-6.00
67358;HTU21D;54240;51.096;5.878;2023-06-10T05:29:20;20.89;-6.00
67358;HTU21D;54240;51.096;5.878;2023-06-10T05:31:46;20.99;-6.00
67358;HTU21D;54240;51.096;5.878;2023-06-10T05:34:12;21.01;-6.00
67358;HTU21D;54240;51.096;5.878;2023-06-10T05:36:38;21.07;-6.00
67358;HTU21D;54240;51.096;5.878;2023-06-10T05:39:04;21.13;-6.00
67358;HTU21D;54240;51.096;5.878;2023-06-10T05:41:30;21.09;-6.00
67358;HTU21D;54240;51.096;5.878;2023-06-10T05:43:56;21.19;-6.00
67358;HTU21D;54240;51.096;5.878;2023-06-10T05:46:22;21.30;-6.00
67358;HTU21D;54240;51.096;5.878;2023-06-10T05:48:48;21.34;-6.00
67358;HTU21D;54240;51.096;5.878;2023-06-10T05:51:14;21.49;-6.00
67358;HTU21D;54240;51.096;5.878;2023-06-10T05:53:40;21.61;-6.00
67358;HTU21D;54240;51.096;5.878;2023-06-10T05:56:06;21.72;-6.00
67358;HTU21D;54240;51.096;5.878;2023-06-10T05:58:32;21.85;-6.00
67358;HTU21D;54240;51.096;5.878;2023-06-10T06:00:58;21.98;-6.00
67358;HTU21D;54240;51.096;5.878;2023-06-10T06:03:24;22.09;-6.00
67358;HTU21D;54240;51.096;5.878;2023-06-10T06:05:50;22.24;-6.00
67358;HTU21D;54240;51.096;5.878;2023-06-10T06:08:16;22.39;-6.00
67358;HTU21D;54240;51.096;5.878;2023-06-10T06:10:47;22.49;-6.00
67358;HTU21D;54240;51.096;5.878;2023-06-10T06:13:15;22.60;-6.00
67358;HTU21D;54240;51.096;5.878;2023-06-10T06:15:41;22.64;-6.00
67358;HTU21D;54240;51.096;5.878;2023-06-10T06:18:07;22.75;-6.00
67358;HTU21D;54240;51.096;5.878;2023-06-10T06:20:33;22.81;-6.00
67358;HTU21D;54240;51.096;5.878;2023-06-10T06:22:59;22.91;-6.00
67358;HTU21D;54240;51.096;5.878;2023-06-10T06:25:25;22.99;-6.00
67358;HTU21D;54240;51.096;5.878;2023-06-10T06:27:51;23.12;-6.00
67358;HTU21D;54240;51.096;5.878;2023-06-10T06:30:17;23.22;-6.00
67358;HTU21D;54240;51.096;5.878;2023-06-10T06:32:43;23.27;-6.00
67358;HTU21D;54240;51.096;5.878;2023-06-10T06:35:09;23.38;-6.00
67358;HTU21D;54240;51.096;5.878;2023-06-10T06:37:36;23.49;-6.00
67358;HTU21D;54240;51.096;5.878;2023-06-10T06:40:14;23.60;-6.00
67358;HTU21D;54240;51.096;5.878;2023-06-10T06:42:40;23.69;-6.00
67358;HTU21D;54240;51.096;5.878;2023-06-10T06:45:21;23.76;-6.00
67358;HTU21D;54240;51.096;5.878;2023-06-10T06:47:48;23.88;-6.00
67358;HTU21D;54240;51.096;5.878;2023-06-10T06:50:14;23.96;-6.00
67358;HTU21D;54240;51.096;5.878;2023-06-10T06:52:40;24.09;-6.00
67358;HTU21D;54240;51.096;5.878;2023-06-10T06:55:06;24.26;-6.00
67358;HTU21D;54240;51.096;5.878;2023-06-10T06:57:32;24.41;-6.00
67358;HTU21D;54240;51.096;5.878;2023-06-10T06:59:58;24.36;-6.00
67358;HTU21D;54240;51.096;5.878;2023-06-10T07:02:24;24.56;-6.00
67358;HTU21D;54240;51.096;5.878;2023-06-10T07:04:50;24.64;-6.00
67358;HTU21D;54240;51.096;5.878;2023-06-10T07:07:16;24.86;-6.00
67358;HTU21D;54240;51.096;5.878;2023-06-10T07:09:42;25.01;-6.00
67358;HTU21D;54240;51.096;5.878;2023-06-10T07:12:08;25.19;-6.00
67358;HTU21D;54240;51.096;5.878;2023-06-10T07:14:34;25.42;-6.00
67358;HTU21D;54240;51.096;5.878;2023-06-10T07:17:00;25.59;-6.00
67358;HTU21D;54240;51.096;5.878;2023-06-10T07:19:26;25.65;-6.00
67358;HTU21D;54240;51.096;5.878;2023-06-10T07:21:52;25.75;-6.00
67358;HTU21D;54240;51.096;5.878;2023-06-10T07:24:18;25.73;-6.00
67358;HTU21D;54240;51.096;5.878;2023-06-10T07:26:45;25.90;-6.00
67358;HTU21D;54240;51.096;5.878;2023-06-10T07:29:11;26.13;-6.00
67358;HTU21D;54240;51.096;5.878;2023-06-10T07:31:38;26.43;-6.00
67358;HTU21D;54240;51.096;5.878;2023-06-10T07:34:04;26.60;-6.00
67358;HTU21D;54240;51.096;5.878;2023-06-10T07:36:30;26.78;-6.00
67358;HTU21D;54240;51.096;5.878;2023-06-10T07:38:56;26.89;-6.00
67358;HTU21D;54240;51.096;5.878;2023-06-10T07:41:25;26.90;-6.00
67358;HTU21D;54240;51.096;5.878;2023-06-10T07:43:53;26.89;-6.00
67358;HTU21D;54240;51.096;5.878;2023-06-10T07:46:24;27.06;-6.00
67358;HTU21D;54240;51.096;5.878;2023-06-10T07:48:50;27.04;-6.00
67358;HTU21D;54240;51.096;5.878;2023-06-10T07:51:17;26.94;-6.00
67358;HTU21D;54240;51.096;5.878;2023-06-10T07:53:43;27.00;-6.00
67358;HTU21D;54240;51.096;5.878;2023-06-10T07:56:09;27.24;-6.00
67358;HTU21D;54240;51.096;5.878;2023-06-10T07:58:35;27.54;-6.00
67358;HTU21D;54240;51.096;5.878;2023-06-10T08:01:01;27.71;-6.00
67358;HTU21D;54240;51.096;5.878;2023-06-10T08:03:27;27.72;-6.00
67358;HTU21D;54240;51.096;5.878;2023-06-10T08:05:53;27.85;-6.00
67358;HTU21D;54240;51.096;5.878;2023-06-10T08:08:19;28.26;-6.00
67358;HTU21D;54240;51.096;5.878;2023-06-10T08:10:45;28.76;-6.00
67358;HTU21D;54240;51.096;5.878;2023-06-10T08:13:11;29.52;-6.00
67358;HTU21D;54240;51.096;5.878;2023-06-10T08:15:37;30.21;-6.00
67358;HTU21D;54240;51.096;5.878;2023-06-10T08:18:03;30.28;-6.00
67358;HTU21D;54240;51.096;5.878;2023-06-10T08:20:29;30.44;-6.00
67358;HTU21D;54240;51.096;5.878;2023-06-10T08:22:55;30.72;-6.00
67358;HTU21D;54240;51.096;5.878;2023-06-10T08:25:21;30.99;-6.00
67358;HTU21D;54240;51.096;5.878;2023-06-10T08:27:48;31.13;-6.00
67358;HTU21D;54240;51.096;5.878;2023-06-10T08:30:14;31.14;-6.00
67358;HTU21D;54240;51.096;5.878;2023-06-10T08:32:40;31.18;-6.00
67358;HTU21D;54240;51.096;5.878;2023-06-10T08:35:06;31.48;-6.00
67358;HTU21D;54240;51.096;5.878;2023-06-10T08:37:32;31.92;-6.00
67358;HTU21D;54240;51.096;5.878;2023-06-10T08:39:58;32.25;-6.00
67358;HTU21D;54240;51.096;5.878;2023-06-10T08:42:33;32.18;-6.00
67358;HTU21D;54240;51.096;5.878;2023-06-10T08:45:01;31.74;-6.00
67358;HTU21D;54240;51.096;5.878;2023-06-10T08:47:30;31.69;-6.00
67358;HTU21D;54240;51.096;5.878;2023-06-10T08:50:05;31.26;-6.00
67358;HTU21D;54240;51.096;5.878;2023-06-10T08:52:36;31.43;-6.00
67358;HTU21D;54240;51.096;5.878;2023-06-10T08:55:10;31.36;-6.00
67358;HTU21D;54240;51.096;5.878;2023-06-10T08:57:37;31.76;-6.00
67358;HTU21D;54240;51.096;5.878;2023-06-10T09:00:05;32.00;-6.00
67358;HTU21D;54240;51.096;5.878;2023-06-10T09:02:33;32.38;-6.00
67358;HTU21D;54240;51.096;5.878;2023-06-10T09:05:02;32.77;-6.00
67358;HTU21D;54240;51.096;5.878;2023-06-10T09:07:30;32.66;-6.00
67358;HTU21D;54240;51.096;5.878;2023-06-10T09:10:03;32.52;-6.00
67358;HTU21D;54240;51.096;5.878;2023-06-10T09:12:30;32.57;-6.00
67358;HTU21D;54240;51.096;5.878;2023-06-10T09:14:56;32.94;-6.00
67358;HTU21D;54240;51.096;5.878;2023-06-10T09:17:23;33.44;-6.00
67358;HTU21D;54240;51.096;5.878;2023-06-10T09:19:51;34.04;-6.00
67358;HTU21D;54240;51.096;5.878;2023-06-10T09:22:22;34.48;-6.00
67358;HTU21D;54240;51.096;5.878;2023-06-10T09:24:49;34.69;-6.00
67358;HTU21D;54240;51.096;5.878;2023-06-10T09:27:15;34.68;-6.00
67358;HTU21D;54240;51.096;5.878;2023-06-10T09:29:52;34.86;-6.00
67358;HTU21D;54240;51.096;5.878;2023-06-10T09:32:19;34.17;-6.00
67358;HTU21D;54240;51.096;5.878;2023-06-10T09:34:47;33.85;-6.00
67358;HTU21D;54240;51.096;5.878;2023-06-10T09:37:20;34.17;-6.00
67358;HTU21D;54240;51.096;5.878;2023-06-10T09:40:13;35.01;-6.00
67358;HTU21D;54240;51.096;5.878;2023-06-10T09:42:39;35.34;-6.00
67358;HTU21D;54240;51.096;5.878;2023-06-10T09:45:06;35.16;-6.00
67358;HTU21D;54240;51.096;5.878;2023-06-10T09:47:33;34.73;-6.00
67358;HTU21D;54240;51.096;5.878;2023-06-10T09:49:59;34.64;-5.03
67358;HTU21D;54240;51.096;5.878;2023-06-10T09:52:27;34.99;-6.00
67358;HTU21D;54240;51.096;5.878;2023-06-10T09:54:59;35.60;-6.00
67358;HTU21D;54240;51.096;5.878;2023-06-10T09:57:26;36.21;-6.00
67358;HTU21D;54240;51.096;5.878;2023-06-10T09:59:56;36.48;-6.00
67358;HTU21D;54240;51.096;5.878;2023-06-10T10:02:22;35.99;-6.00
67358;HTU21D;54240;51.096;5.878;2023-06-10T10:04:47;35.82;-6.00
67358;HTU21D;54240;51.096;5.878;2023-06-10T10:07:14;35.57;-6.00
67358;HTU21D;54240;51.096;5.878;2023-06-10T10:09:41;35.79;-6.00
67358;HTU21D;54240;51.096;5.878;2023-06-10T10:12:13;35.90;-6.00
67358;HTU21D;54240;51.096;5.878;2023-06-10T10:14:46;35.40;-6.00
67358;HTU21D;54240;51.096;5.878;2023-06-10T10:17:15;35.49;-6.00
67358;HTU21D;54240;51.096;5.878;2023-06-10T10:19:54;35.40;-6.00
67358;HTU21D;54240;51.096;5.878;2023-06-10T10:22:26;35.82;-6.00
67358;HTU21D;54240;51.096;5.878;2023-06-10T10:24:57;36.37;-6.00
67358;HTU21D;54240;51.096;5.878;2023-06-10T10:27:44;36.56;-6.00
67358;HTU21D;54240;51.096;5.878;2023-06-10T10:30:14;36.62;-6.00
67358;HTU21D;54240;51.096;5.878;2023-06-10T10:33:04;36.45;-6.00
67358;HTU21D;54240;51.096;5.878;2023-06-10T10:35:33;36.31;-6.00
67358;HTU21D;54240;51.096;5.878;2023-06-10T10:37:59;36.40;-6.00
67358;HTU21D;54240;51.096;5.878;2023-06-10T10:40:28;35.62;-6.00
67358;HTU21D;54240;51.096;5.878;2023-06-10T10:42:56;35.65;-6.00
67358;HTU21D;54240;51.096;5.878;2023-06-10T10:45:24;36.27;-6.00
67358;HTU21D;54240;51.096;5.878;2023-06-10T10:47:53;36.49;-6.00
67358;HTU21D;54240;51.096;5.878;2023-06-10T10:50:21;36.75;-6.00
67358;HTU21D;54240;51.096;5.878;2023-06-10T10:52:54;37.32;-6.00
67358;HTU21D;54240;51.096;5.878;2023-06-10T10:55:22;38.07;-6.00
67358;HTU21D;54240;51.096;5.878;2023-06-10T10:57:57;37.79;-6.00
67358;HTU21D;54240;51.096;5.878;2023-06-10T11:05:48;37.80;-6.00
67358;HTU21D;54240;51.096;5.878;2023-06-10T11:08:16;37.58;-6.00
67358;HTU21D;54240;51.096;5.878;2023-06-10T11:11:18;37.00;-6.00
67358;HTU21D;54240;51.096;5.878;2023-06-10T11:16:31;35.95;-6.00
67358;HTU21D;54240;51.096;5.878;2023-06-10T11:19:03;36.51;-6.00
67358;HTU21D;54240;51.096;5.878;2023-06-10T11:21:29;37.44;-6.00
67358;HTU21D;54240;51.096;5.878;2023-06-10T11:23:58;38.14;-6.00
67358;HTU21D;54240;51.096;5.878;2023-06-10T11:31:23;38.18;-6.00
67358;HTU21D;54240;51.096;5.878;2023-06-10T11:33:53;38.52;-6.00
67358;HTU21D;54240;51.096;5.878;2023-06-10T11:36:24;38.61;-6.00
67358;HTU21D;54240;51.096;5.878;2023-06-10T11:38:57;37.99;-6.00
67358;HTU21D;54240;51.096;5.878;2023-06-10T11:41:24;36.86;-6.00
67358;HTU21D;54240;51.096;5.878;2023-06-10T11:44:01;36.56;-6.00
67358;HTU21D;54240;51.096;5.878;2023-06-10T11:46:27;36.39;-6.00
67358;HTU21D;54240;51.096;5.878;2023-06-10T11:48:55;36.25;-6.00
67358;HTU21D;54240;51.096;5.878;2023-06-10T11:51:25;36.64;-6.00
67358;HTU21D;54240;51.096;5.878;2023-06-10T11:53:52;36.26;-6.00
67358;HTU21D;54240;51.096;5.878;2023-06-10T11:58:53;35.81;-6.00
67358;HTU21D;54240;51.096;5.878;2023-06-10T12:01:21;35.68;-6.00
67358;HTU21D;54240;51.096;5.878;2023-06-10T12:03:56;35.92;-6.00
67358;HTU21D;54240;51.096;5.878;2023-06-10T12:06:22;35.98;-6.00
67358;HTU21D;54240;51.096;5.878;2023-06-10T12:08:47;36.00;-6.00
67358;HTU21D;54240;51.096;5.878;2023-06-10T12:11:13;36.10;-6.00
67358;HTU21D;54240;51.096;5.878;2023-06-10T12:13:46;36.17;-6.00
67358;HTU21D;54240;51.096;5.878;2023-06-10T12:16:15;36.10;-6.00
67358;HTU21D;54240;51.096;5.878;2023-06-10T12:18:46;36.23;-6.00
67358;HTU21D;54240;51.096;5.878;2023-06-10T12:21:18;36.47;-6.00
67358;HTU21D;54240;51.096;5.878;2023-06-10T12:24:00;36.26;-6.00
67358;HTU21D;54240;51.096;5.878;2023-06-10T12:26:44;35.78;-6.00
67358;HTU21D;54240;51.096;5.878;2023-06-10T12:29:19;35.69;-6.00
67358;HTU21D;54240;51.096;5.878;2023-06-10T12:32:03;35.82;-6.00
67358;HTU21D;54240;51.096;5.878;2023-06-10T12:34:38;35.53;-6.00
67358;HTU21D;54240;51.096;5.878;2023-06-10T12:37:06;35.62;-6.00
67358;HTU21D;54240;51.096;5.878;2023-06-10T12:39:35;35.93;-6.00
67358;HTU21D;54240;51.096;5.878;2023-06-10T12:42:01;35.67;-6.00
67358;HTU21D;54240;51.096;5.878;2023-06-10T12:44:34;35.59;-6.00
67358;HTU21D;54240;51.096;5.878;2023-06-10T12:47:00;35.59;-6.00
67358;HTU21D;54240;51.096;5.878;2023-06-10T12:49:27;35.64;-6.00
67358;HTU21D;54240;51.096;5.878;2023-06-10T12:51:53;35.55;-6.00
67358;HTU21D;54240;51.096;5.878;2023-06-10T12:54:19;35.41;-6.00
67358;HTU21D;54240;51.096;5.878;2023-06-10T12:56:45;35.58;-6.00
67358;HTU21D;54240;51.096;5.878;2023-06-10T12:59:11;35.64;-6.00
67358;HTU21D;54240;51.096;5.878;2023-06-10T13:01:38;35.81;-6.00
67358;HTU21D;54240;51.096;5.878;2023-06-10T13:04:05;36.15;-6.00
67358;HTU21D;54240;51.096;5.878;2023-06-10T13:06:34;35.87;-6.00
67358;HTU21D;54240;51.096;5.878;2023-06-10T13:09:02;35.33;-6.00
67358;HTU21D;54240;51.096;5.878;2023-06-10T13:11:29;35.01;-6.00
67358;HTU21D;54240;51.096;5.878;2023-06-10T13:13:55;34.88;-6.00
67358;HTU21D;54240;51.096;5.878;2023-06-10T13:16:21;35.00;-6.00
67358;HTU21D;54240;51.096;5.878;2023-06-10T13:18:47;35.19;-6.00
67358;HTU21D;54240;51.096;5.878;2023-06-10T13:21:12;35.38;-6.00
67358;HTU21D;54240;51.096;5.878;2023-06-10T13:23:38;35.75;-6.00
67358;HTU21D;54240;51.096;5.878;2023-06-10T13:26:05;35.90;-6.00
67358;HTU21D;54240;51.096;5.878;2023-06-10T13:28:31;36.06;-6.00
67358;HTU21D;54240;51.096;5.878;2023-06-10T13:30:57;36.10;-6.00
67358;HTU21D;54240;51.096;5.878;2023-06-10T13:33:23;35.89;-6.00
67358;HTU21D;54240;51.096;5.878;2023-06-10T13:35:49;35.86;-6.00
67358;HTU21D;54240;51.096;5.878;2023-06-10T13:38:15;35.94;-6.00
67358;HTU21D;54240;51.096;5.878;2023-06-10T13:40:41;36.30;-6.00
67358;HTU21D;54240;51.096;5.878;2023-06-10T13:43:07;36.53;-6.00
67358;HTU21D;54240;51.096;5.878;2023-06-10T13:45:35;36.51;-6.00
67358;HTU21D;54240;51.096;5.878;2023-06-10T13:48:01;36.36;-6.00
67358;HTU21D;54240;51.096;5.878;2023-06-10T13:50:29;35.83;-6.00
67358;HTU21D;54240;51.096;5.878;2023-06-10T13:52:55;34.70;-6.00
67358;HTU21D;54240;51.096;5.878;2023-06-10T13:55:21;34.01;-6.00
67358;HTU21D;54240;51.096;5.878;2023-06-10T13:57:47;34.16;-6.00
67358;HTU21D;54240;51.096;5.878;2023-06-10T14:00:13;33.82;-6.00
67358;HTU21D;54240;51.096;5.878;2023-06-10T14:02:40;33.49;-6.00
67358;HTU21D;54240;51.096;5.878;2023-06-10T14:05:06;33.51;-6.00
67358;HTU21D;54240;51.096;5.878;2023-06-10T14:07:34;33.33;-6.00
67358;HTU21D;54240;51.096;5.878;2023-06-10T14:10:00;33.14;-6.00
67358;HTU21D;54240;51.096;5.878;2023-06-10T14:12:26;33.33;-6.00
67358;HTU21D;54240;51.096;5.878;2023-06-10T14:14:52;33.90;-6.00
67358;HTU21D;54240;51.096;5.878;2023-06-10T14:17:18;34.12;-6.00
67358;HTU21D;54240;51.096;5.878;2023-06-10T14:19:44;34.35;-6.00
67358;HTU21D;54240;51.096;5.878;2023-06-10T14:22:10;34.67;-6.00
67358;HTU21D;54240;51.096;5.878;2023-06-10T14:24:36;34.78;-6.00
67358;HTU21D;54240;51.096;5.878;2023-06-10T14:27:03;34.82;-6.00
67358;HTU21D;54240;51.096;5.878;2023-06-10T14:29:29;35.00;-6.00
67358;HTU21D;54240;51.096;5.878;2023-06-10T14:31:57;34.98;-6.00
67358;HTU21D;54240;51.096;5.878;2023-06-10T14:34:23;35.00;-6.00
67358;HTU21D;54240;51.096;5.878;2023-06-10T14:36:57;35.25;-6.00
67358;HTU21D;54240;51.096;5.878;2023-06-10T14:39:23;35.33;-6.00
67358;HTU21D;54240;51.096;5.878;2023-06-10T14:41:49;35.50;-6.00
67358;HTU21D;54240;51.096;5.878;2023-06-10T14:44:15;35.67;-6.00
67358;HTU21D;54240;51.096;5.878;2023-06-10T14:46:41;35.69;-6.00
67358;HTU21D;54240;51.096;5.878;2023-06-10T14:49:06;35.28;-6.00
67358;HTU21D;54240;51.096;5.878;2023-06-10T14:51:32;35.42;-6.00
67358;HTU21D;54240;51.096;5.878;2023-06-10T14:53:58;35.78;-6.00
67358;HTU21D;54240;51.096;5.878;2023-06-10T14:56:25;35.73;-6.00
67358;HTU21D;54240;51.096;5.878;2023-06-10T14:58:52;35.68;-6.00
67358;HTU21D;54240;51.096;5.878;2023-06-10T15:01:18;34.79;-6.00
67358;HTU21D;54240;51.096;5.878;2023-06-10T15:03:44;34.16;-6.00
67358;HTU21D;54240;51.096;5.878;2023-06-10T15:06:10;34.32;-6.00
67358;HTU21D;54240;51.096;5.878;2023-06-10T15:08:36;34.30;-6.00
67358;HTU21D;54240;51.096;5.878;2023-06-10T15:11:02;34.59;-6.00
67358;HTU21D;54240;51.096;5.878;2023-06-10T15:13:28;34.64;-6.00
67358;HTU21D;54240;51.096;5.878;2023-06-10T15:15:54;34.46;-6.00
67358;HTU21D;54240;51.096;5.878;2023-06-10T15:18:21;34.11;-6.00
67358;HTU21D;54240;51.096;5.878;2023-06-10T15:20:47;34.00;-6.00
67358;HTU21D;54240;51.096;5.878;2023-06-10T15:23:13;34.25;-6.00
67358;HTU21D;54240;51.096;5.878;2023-06-10T15:25:39;34.49;-6.00
67358;HTU21D;54240;51.096;5.878;2023-06-10T15:28:06;34.48;-6.00
67358;HTU21D;54240;51.096;5.878;2023-06-10T15:30:32;34.45;-6.00
67358;HTU21D;54240;51.096;5.878;2023-06-10T15:32:58;34.47;-6.00
67358;HTU21D;54240;51.096;5.878;2023-06-10T15:35:24;34.34;-6.00
67358;HTU21D;54240;51.096;5.878;2023-06-10T15:37:50;33.89;-6.00
67358;HTU21D;54240;51.096;5.878;2023-06-10T15:40:16;33.99;-6.00